KAZO/AZO METAR and TAF weather

Enter ICAO airport designator
Station Type Date Time Source
KAZO METAR 2021/05/13 05:53 UTC NOAA

KAZO 130553Z AUTO 00000KT 10SM CLR 05/M04 A3040 RMK AO2 SLP298 T00501039 10156 20039 56004


Station Type Date Time Source
KAZO Decoded METAR 2021/05/13 05:53 UTC NOAA

KALAMAZOO/BATTLE CREEK AIRPORT, MI, United States (KAZO) 42-14N 085-33W 272M
May 13, 2021 - 01:53 AM EDT / 2021.05.13 0553 UTC
Wind: Calm:0
Visibility: 10 mile(s):0
Sky conditions: clear
Temperature: 41.0 F (5.0 C)
Dew Point: 25.0 F (-3.9 C)
Relative Humidity: 52%
Pressure (altimeter): 30.4 in. Hg (1029 hPa)
Pressure tendency: 0.01 inches (0.4 hPa) lower than three hours ago
ob: KAZO 130553Z AUTO 00000KT 10SM CLR 05/M04 A3040 RMK AO2 SLP298 T00501039 10156 20039 56004
cycle: 6

Station Type Date Time Source
KAZO TAF 2021/05/13 06:42 UTC NOAA

TAF KAZO 130540Z 1306/1406 00000KT P6SM SKC
FM131600 25006KT P6SM SKC

Example: see airport list